createdAt,value
2018-08-03T00:03:47.825Z,3.70
2018-08-03T00:08:51.314Z,2.67
2018-08-03T00:13:54.594Z,3.00
2018-08-03T00:18:57.963Z,4.33
2018-08-03T00:24:01.290Z,4.30
2018-08-03T00:29:04.578Z,3.20
2018-08-03T00:34:07.883Z,3.13
2018-08-03T00:39:11.727Z,3.30
2018-08-03T00:44:15.071Z,1.87
2018-08-03T00:49:18.357Z,2.10
2018-08-03T00:54:21.705Z,2.10
2018-08-03T00:59:25.027Z,3.40
2018-08-03T01:04:28.335Z,2.47
2018-08-03T01:09:31.699Z,5.07
2018-08-03T01:14:35.127Z,3.30
2018-08-03T01:19:38.422Z,6.37
2018-08-03T01:24:41.842Z,3.70
2018-08-03T01:29:45.089Z,2.57
2018-08-03T01:34:48.331Z,5.33
2018-08-03T01:39:51.991Z,2.67
2018-08-03T01:44:55.234Z,2.33
2018-08-03T01:49:58.526Z,4.07
2018-08-03T01:55:01.836Z,2.77
2018-08-03T02:00:05.702Z,2.10
2018-08-03T02:05:08.978Z,3.23
2018-08-03T02:10:12.334Z,2.83
2018-08-03T02:15:15.609Z,2.70
2018-08-03T02:20:18.897Z,2.73
2018-08-03T02:25:22.175Z,3.23
2018-08-03T02:30:25.421Z,5.97
2018-08-03T02:35:28.686Z,4.73
2018-08-03T02:40:31.947Z,3.57
2018-08-03T02:45:35.258Z,4.80
2018-08-03T02:50:38.538Z,4.03
2018-08-03T02:55:41.901Z,4.10
2018-08-03T03:00:45.256Z,4.60
2018-08-03T03:05:48.502Z,3.23
2018-08-03T03:10:51.771Z,3.00
2018-08-03T03:15:55.044Z,5.90
2018-08-03T03:20:58.315Z,3.67
2018-08-03T03:26:01.588Z,5.53
2018-08-03T03:31:04.874Z,4.57
2018-08-03T03:36:08.134Z,5.83
2018-08-03T03:41:11.422Z,5.23
2018-08-03T03:46:14.719Z,4.93
2018-08-03T03:51:18.023Z,4.10
2018-08-03T03:56:21.297Z,5.13
2018-08-03T04:01:24.656Z,5.87
2018-08-03T04:06:27.900Z,8.60
2018-08-03T04:11:31.213Z,4.67
2018-08-03T04:16:34.795Z,5.17
2018-08-03T04:21:38.031Z,4.50
2018-08-03T04:26:41.409Z,6.10
2018-08-03T04:31:44.706Z,6.60
2018-08-03T04:36:47.955Z,5.40
2018-08-03T04:41:51.270Z,6.03
2018-08-03T04:46:54.534Z,5.43
2018-08-03T04:51:57.807Z,6.67
2018-08-03T04:57:01.084Z,7.90
2018-08-03T05:02:04.387Z,6.07
2018-08-03T05:07:07.862Z,4.83
2018-08-03T05:12:11.174Z,8.27
2018-08-03T05:17:14.379Z,8.77
2018-08-03T05:22:17.630Z,9.87
2018-08-03T05:27:20.999Z,7.17
2018-08-03T05:32:24.251Z,8.90
2018-08-03T05:37:27.650Z,8.17
2018-08-03T05:42:30.983Z,7.93
2018-08-03T05:47:34.246Z,8.20
2018-08-03T05:52:37.521Z,7.93
2018-08-03T05:57:40.973Z,7.33
2018-08-03T06:02:44.311Z,8.20
2018-08-03T06:07:47.696Z,10.03
2018-08-03T06:12:50.964Z,7.83
2018-08-03T06:17:54.223Z,8.00
2018-08-03T06:22:57.531Z,9.43
2018-08-03T06:28:00.826Z,7.93
2018-08-03T06:33:04.139Z,8.83
2018-08-03T06:38:07.445Z,6.97
2018-08-03T06:43:10.937Z,9.30
2018-08-03T06:48:14.278Z,10.17
2018-08-03T06:53:17.567Z,9.93
2018-08-03T06:58:20.885Z,8.17
2018-08-03T07:03:24.207Z,11.43
2018-08-03T07:08:27.548Z,10.13
2018-08-03T07:13:30.861Z,8.67
2018-08-03T07:18:34.161Z,7.77
2018-08-03T07:23:37.446Z,9.10
2018-08-03T07:28:40.739Z,9.70
2018-08-03T07:33:44.475Z,9.20
2018-08-03T07:38:48.591Z,7.30
2018-08-03T07:43:51.987Z,8.83
2018-08-03T07:48:55.241Z,9.00
2018-08-03T07:53:58.503Z,10.30
2018-08-03T07:59:02.075Z,7.57
2018-08-03T08:04:07.272Z,9.60
2018-08-03T08:09:11.719Z,10.50
2018-08-03T08:14:14.735Z,9.47
2018-08-03T08:19:18.809Z,10.37
2018-08-03T08:24:22.185Z,12.37
2018-08-03T08:29:25.439Z,10.50
2018-08-03T08:34:28.750Z,10.87
2018-08-03T08:39:32.098Z,11.60
2018-08-03T08:44:35.459Z,8.80
2018-08-03T08:49:38.716Z,9.37
2018-08-03T08:54:42.000Z,8.43
2018-08-03T08:59:45.664Z,10.77
2018-08-03T09:04:48.861Z,9.10
2018-08-03T09:09:52.359Z,11.47
2018-08-03T09:14:55.726Z,10.23
2018-08-03T09:19:58.982Z,8.87
2018-08-03T09:25:02.423Z,11.77
2018-08-03T09:30:07.566Z,13.50
2018-08-03T09:35:11.068Z,11.13
2018-08-03T09:40:14.418Z,10.80
2018-08-03T09:45:17.738Z,8.40
2018-08-03T09:50:21.017Z,5.27
2018-08-03T09:55:24.340Z,7.17
2018-08-03T10:00:33.989Z,8.07
2018-08-03T10:05:37.254Z,4.10
2018-08-03T10:10:40.504Z,4.83
2018-08-03T10:15:44.253Z,4.00
2018-08-03T10:20:50.603Z,5.80
2018-08-03T10:25:53.855Z,5.13
2018-08-03T10:30:57.136Z,4.53
2018-08-03T10:36:01.224Z,7.10
2018-08-03T10:41:04.508Z,4.70
2018-08-03T10:46:10.719Z,4.80
2018-08-03T10:51:14.085Z,5.20
2018-08-03T10:56:17.326Z,4.63
2018-08-03T11:01:20.732Z,4.03
2018-08-03T11:06:24.027Z,4.50
2018-08-03T11:11:27.344Z,6.20
2018-08-03T11:16:30.639Z,8.10
2018-08-03T11:21:33.927Z,3.80
2018-08-03T11:26:37.176Z,5.93
2018-08-03T11:31:40.463Z,3.97
2018-08-03T11:36:43.730Z,5.37
2018-08-03T11:41:47.052Z,4.07
2018-08-03T11:46:50.779Z,5.57
2018-08-03T11:51:54.134Z,5.83
2018-08-03T11:56:57.401Z,4.83
2018-08-03T12:02:00.790Z,3.70
2018-08-03T12:07:03.967Z,3.77
2018-08-03T12:12:10.422Z,4.57
2018-08-03T12:17:13.674Z,4.57
2018-08-03T12:22:17.147Z,5.03
2018-08-03T12:27:20.868Z,4.63
2018-08-03T12:32:27.161Z,5.37
2018-08-03T12:37:30.435Z,4.17
2018-08-03T12:42:33.687Z,4.40
2018-08-03T12:47:36.951Z,4.77
2018-08-03T12:52:40.280Z,4.40
2018-08-03T12:57:43.516Z,6.13
2018-08-03T13:02:48.067Z,3.63
2018-08-03T13:07:52.751Z,3.60
2018-08-03T13:12:55.982Z,4.77
2018-08-03T13:17:59.437Z,6.72
2018-08-03T13:23:04.766Z,6.03
2018-08-03T13:28:08.059Z,5.83
2018-08-03T13:33:11.415Z,6.00
2018-08-03T13:38:14.609Z,6.90
2018-08-03T13:43:17.931Z,4.42
2018-08-03T13:48:21.259Z,3.60
2018-08-03T13:53:24.740Z,4.20
2018-08-03T13:58:28.026Z,3.53
2018-08-03T14:03:31.331Z,3.50
2018-08-03T14:08:34.723Z,4.70
2018-08-03T14:13:37.979Z,3.27
2018-08-03T14:18:41.710Z,3.77
2018-08-03T14:23:44.999Z,5.07
2018-08-03T14:28:48.042Z,3.07
2018-08-03T14:33:51.351Z,3.83
2018-08-03T14:38:54.643Z,3.80
2018-08-03T14:43:57.994Z,3.70
2018-08-03T14:49:01.323Z,4.00
2018-08-03T14:54:04.712Z,5.27
2018-08-03T14:59:08.103Z,3.30
2018-08-03T15:04:11.369Z,3.43
2018-08-03T15:09:14.628Z,3.67
2018-08-03T15:14:17.891Z,5.37
2018-08-03T15:19:21.445Z,4.13
2018-08-03T15:24:24.822Z,3.57
2018-08-03T15:29:28.082Z,4.03
2018-08-03T15:34:31.559Z,4.07
2018-08-03T15:39:34.816Z,3.98
2018-08-03T15:44:38.088Z,8.53
2018-08-03T15:49:41.383Z,3.73
2018-08-03T15:54:44.659Z,4.57
2018-08-03T15:59:47.915Z,3.53
2018-08-03T16:04:51.609Z,4.23
2018-08-03T16:10:01.666Z,3.83
2018-08-03T16:15:05.482Z,5.50
2018-08-03T16:20:08.944Z,3.50
2018-08-03T16:25:12.186Z,5.30
2018-08-03T16:30:15.719Z,5.17
2018-08-03T16:35:19.082Z,3.30
2018-08-03T16:40:22.682Z,3.93
2018-08-03T16:45:25.990Z,3.40
2018-08-03T16:50:29.305Z,3.43
2018-08-03T16:55:32.570Z,4.23
2018-08-03T17:00:35.814Z,5.03
2018-08-03T17:05:39.129Z,4.30
2018-08-03T17:10:42.463Z,3.40
2018-08-03T17:15:45.721Z,4.37
2018-08-03T17:20:48.983Z,3.17
2018-08-03T17:25:52.327Z,4.07
2018-08-03T17:30:55.572Z,4.60
2018-08-03T17:35:58.864Z,3.23
2018-08-03T17:41:02.145Z,3.33
2018-08-03T17:46:05.930Z,3.60
2018-08-03T17:51:09.215Z,4.10
2018-08-03T17:56:12.502Z,3.30
2018-08-03T18:01:15.772Z,2.93
2018-08-03T18:06:18.763Z,4.77
2018-08-03T18:11:22.349Z,4.57
2018-08-03T18:16:25.612Z,6.50
2018-08-03T18:21:28.974Z,5.57
2018-08-03T18:26:32.212Z,4.77
2018-08-03T18:31:35.510Z,3.90
2018-08-03T18:36:38.836Z,4.87
2018-08-03T18:41:42.107Z,6.17
2018-08-03T18:46:45.463Z,4.87
2018-08-03T18:51:48.876Z,4.60
2018-08-03T18:56:52.273Z,4.20
2018-08-03T19:01:55.540Z,4.60
2018-08-03T19:06:59.051Z,5.47
2018-08-03T19:12:02.298Z,4.67
2018-08-03T19:17:05.428Z,3.83
2018-08-03T19:22:08.727Z,4.50
2018-08-03T19:32:21.728Z,5.77
2018-08-03T19:37:25.117Z,3.70
2018-08-03T19:42:28.372Z,6.27
2018-08-03T19:47:31.689Z,6.03
2018-08-03T19:52:34.957Z,5.03
2018-08-03T19:57:38.444Z,4.13
2018-08-03T20:02:41.750Z,4.40
2018-08-03T20:07:45.062Z,3.20
2018-08-03T20:12:49.123Z,4.00
2018-08-03T20:17:52.354Z,3.73
2018-08-03T20:22:55.639Z,4.53
2018-08-03T20:27:58.876Z,3.60
2018-08-03T20:33:02.142Z,4.10
2018-08-03T20:38:05.971Z,3.13
2018-08-03T20:43:09.345Z,3.43
2018-08-03T20:48:12.733Z,3.80
2018-08-03T20:53:16.055Z,3.13
2018-08-03T20:58:19.312Z,6.17
2018-08-03T21:03:22.602Z,3.33
2018-08-03T21:08:25.971Z,3.43
2018-08-03T21:13:29.305Z,3.10
2018-08-03T21:18:32.589Z,5.40
2018-08-03T21:23:35.924Z,4.87
2018-08-03T21:28:39.192Z,4.67
2018-08-03T21:33:42.485Z,3.30
2018-08-03T21:38:45.912Z,3.10
2018-08-03T21:43:49.247Z,7.43
2018-08-03T21:48:52.499Z,3.73
2018-08-03T21:53:55.757Z,5.30
2018-08-03T21:58:59.037Z,4.07
2018-08-03T22:04:02.278Z,2.73
2018-08-03T22:09:07.705Z,2.50
2018-08-03T22:14:10.987Z,3.27
2018-08-03T22:19:14.341Z,4.70
2018-08-03T22:24:17.645Z,2.50
2018-08-03T22:29:21.078Z,3.27
2018-08-03T22:34:24.468Z,3.17
2018-08-03T22:39:27.816Z,2.27
2018-08-03T22:44:31.118Z,5.80
2018-08-03T22:49:34.373Z,7.10
2018-08-03T22:54:37.656Z,2.93
2018-08-03T22:59:40.882Z,2.17
2018-08-03T23:04:44.189Z,2.53
2018-08-03T23:09:47.462Z,2.33
2018-08-03T23:14:50.710Z,2.83
2018-08-03T23:19:53.949Z,2.30
2018-08-03T23:24:57.255Z,2.53
2018-08-03T23:30:00.510Z,4.00
2018-08-03T23:35:03.770Z,2.47
2018-08-03T23:40:07.206Z,2.60
2018-08-03T23:45:10.467Z,2.00
2018-08-03T23:50:18.690Z,3.10
2018-08-03T23:55:22.027Z,3.17
